sensor_id;sensor_type;location;lat;lon;timestamp;P1;durP1;ratioP1;P2;durP2;ratioP2
3613;SDS011;1821;50.936;6.854;2023-07-24T00:00:33;5.70;;;2.83;;
3613;SDS011;1821;50.936;6.854;2023-07-24T00:01:16;5.40;;;2.72;;
3613;SDS011;1821;50.936;6.854;2023-07-24T00:01:59;4.90;;;3.30;;
3613;SDS011;1821;50.936;6.854;2023-07-24T00:02:41;5.20;;;3.70;;
3613;SDS011;1821;50.936;6.854;2023-07-24T00:03:23;4.80;;;3.42;;
3613;SDS011;1821;50.936;6.854;2023-07-24T00:04:05;4.10;;;2.80;;
3613;SDS011;1821;50.936;6.854;2023-07-24T00:04:47;4.22;;;2.75;;
3613;SDS011;1821;50.936;6.854;2023-07-24T00:05:29;4.35;;;3.10;;
3613;SDS011;1821;50.936;6.854;2023-07-24T00:06:11;4.95;;;3.20;;
3613;SDS011;1821;50.936;6.854;2023-07-24T00:06:53;4.80;;;3.40;;
3613;SDS011;1821;50.936;6.854;2023-07-24T00:07:36;5.13;;;2.92;;
3613;SDS011;1821;50.936;6.854;2023-07-24T00:08:18;4.40;;;2.50;;
3613;SDS011;1821;50.936;6.854;2023-07-24T00:09:00;6.25;;;3.22;;
3613;SDS011;1821;50.936;6.854;2023-07-24T00:09:42;7.50;;;3.50;;
3613;SDS011;1821;50.936;6.854;2023-07-24T00:10:24;4.70;;;3.25;;
3613;SDS011;1821;50.936;6.854;2023-07-24T00:11:07;4.32;;;3.45;;
3613;SDS011;1821;50.936;6.854;2023-07-24T00:11:49;5.20;;;3.90;;
3613;SDS011;1821;50.936;6.854;2023-07-24T00:12:33;5.30;;;4.00;;
3613;SDS011;1821;50.936;6.854;2023-07-24T00:13:15;4.43;;;3.63;;
3613;SDS011;1821;50.936;6.854;2023-07-24T00:13:58;5.05;;;3.83;;
3613;SDS011;1821;50.936;6.854;2023-07-24T00:14:40;6.30;;;4.03;;
3613;SDS011;1821;50.936;6.854;2023-07-24T00:15:22;4.40;;;3.50;;
3613;SDS011;1821;50.936;6.854;2023-07-24T00:16:07;5.50;;;3.95;;
3613;SDS011;1821;50.936;6.854;2023-07-24T00:16:50;5.90;;;3.92;;
3613;SDS011;1821;50.936;6.854;2023-07-24T00:17:32;5.50;;;3.75;;
3613;SDS011;1821;50.936;6.854;2023-07-24T00:18:14;6.80;;;4.18;;
3613;SDS011;1821;50.936;6.854;2023-07-24T00:18:56;8.27;;;4.60;;
3613;SDS011;1821;50.936;6.854;2023-07-24T00:19:38;6.70;;;4.30;;
3613;SDS011;1821;50.936;6.854;2023-07-24T00:20:19;6.22;;;4.00;;
3613;SDS011;1821;50.936;6.854;2023-07-24T00:21:02;6.63;;;4.18;;
3613;SDS011;1821;50.936;6.854;2023-07-24T00:21:44;6.45;;;4.30;;
3613;SDS011;1821;50.936;6.854;2023-07-24T00:22:28;6.28;;;4.20;;
3613;SDS011;1821;50.936;6.854;2023-07-24T00:23:11;5.40;;;4.25;;
3613;SDS011;1821;50.936;6.854;2023-07-24T00:23:53;6.40;;;4.20;;
3613;SDS011;1821;50.936;6.854;2023-07-24T00:24:34;5.40;;;3.85;;
3613;SDS011;1821;50.936;6.854;2023-07-24T00:25:16;6.75;;;3.97;;
3613;SDS011;1821;50.936;6.854;2023-07-24T00:25:58;7.28;;;3.80;;
3613;SDS011;1821;50.936;6.854;2023-07-24T00:26:41;7.03;;;3.80;;
3613;SDS011;1821;50.936;6.854;2023-07-24T00:27:22;7.93;;;4.22;;
3613;SDS011;1821;50.936;6.854;2023-07-24T00:28:04;6.20;;;4.45;;
3613;SDS011;1821;50.936;6.854;2023-07-24T00:28:46;6.45;;;4.35;;
3613;SDS011;1821;50.936;6.854;2023-07-24T00:29:28;5.25;;;4.07;;
3613;SDS011;1821;50.936;6.854;2023-07-24T00:30:10;5.05;;;4.00;;
3613;SDS011;1821;50.936;6.854;2023-07-24T00:30:52;6.60;;;4.32;;
3613;SDS011;1821;50.936;6.854;2023-07-24T00:31:34;6.88;;;4.20;;
3613;SDS011;1821;50.936;6.854;2023-07-24T00:32:16;6.38;;;4.35;;
3613;SDS011;1821;50.936;6.854;2023-07-24T00:32:59;5.63;;;4.30;;
3613;SDS011;1821;50.936;6.854;2023-07-24T00:33:41;8.33;;;4.27;;
3613;SDS011;1821;50.936;6.854;2023-07-24T00:34:23;6.30;;;4.50;;
3613;SDS011;1821;50.936;6.854;2023-07-24T00:35:07;5.63;;;4.88;;
3613;SDS011;1821;50.936;6.854;2023-07-24T00:35:50;5.80;;;5.13;;
3613;SDS011;1821;50.936;6.854;2023-07-24T00:36:32;6.35;;;4.93;;
3613;SDS011;1821;50.936;6.854;2023-07-24T00:37:14;6.32;;;4.60;;
3613;SDS011;1821;50.936;6.854;2023-07-24T00:37:58;6.10;;;4.45;;
3613;SDS011;1821;50.936;6.854;2023-07-24T00:38:40;6.32;;;5.03;;
3613;SDS011;1821;50.936;6.854;2023-07-24T00:39:22;7.60;;;4.50;;
3613;SDS011;1821;50.936;6.854;2023-07-24T00:40:04;6.90;;;4.40;;
3613;SDS011;1821;50.936;6.854;2023-07-24T00:40:49;6.45;;;4.63;;
3613;SDS011;1821;50.936;6.854;2023-07-24T00:41:34;8.40;;;4.90;;
3613;SDS011;1821;50.936;6.854;2023-07-24T00:42:18;6.25;;;4.72;;
3613;SDS011;1821;50.936;6.854;2023-07-24T00:43:00;5.43;;;4.00;;
3613;SDS011;1821;50.936;6.854;2023-07-24T00:43:42;6.05;;;4.15;;
3613;SDS011;1821;50.936;6.854;2023-07-24T00:44:23;6.18;;;4.32;;
3613;SDS011;1821;50.936;6.854;2023-07-24T00:45:06;5.28;;;3.97;;
3613;SDS011;1821;50.936;6.854;2023-07-24T00:45:49;5.45;;;4.20;;
3613;SDS011;1821;50.936;6.854;2023-07-24T00:46:32;7.22;;;4.43;;
3613;SDS011;1821;50.936;6.854;2023-07-24T00:47:16;6.22;;;4.30;;
3613;SDS011;1821;50.936;6.854;2023-07-24T00:47:59;6.57;;;4.30;;
3613;SDS011;1821;50.936;6.854;2023-07-24T00:48:41;7.65;;;4.22;;
3613;SDS011;1821;50.936;6.854;2023-07-24T00:49:23;6.00;;;3.75;;
3613;SDS011;1821;50.936;6.854;2023-07-24T00:50:05;5.18;;;3.60;;
3613;SDS011;1821;50.936;6.854;2023-07-24T00:50:48;6.43;;;4.00;;
3613;SDS011;1821;50.936;6.854;2023-07-24T00:51:33;7.47;;;3.85;;
3613;SDS011;1821;50.936;6.854;2023-07-24T00:52:15;6.63;;;3.70;;
3613;SDS011;1821;50.936;6.854;2023-07-24T00:52:58;4.80;;;3.80;;
3613;SDS011;1821;50.936;6.854;2023-07-24T00:53:40;4.40;;;3.70;;
3613;SDS011;1821;50.936;6.854;2023-07-24T00:54:22;4.90;;;3.93;;
3613;SDS011;1821;50.936;6.854;2023-07-24T00:55:05;5.60;;;3.55;;
3613;SDS011;1821;50.936;6.854;2023-07-24T00:55:48;3.72;;;3.17;;
3613;SDS011;1821;50.936;6.854;2023-07-24T00:56:30;5.28;;;3.63;;
3613;SDS011;1821;50.936;6.854;2023-07-24T00:57:13;7.68;;;4.10;;
3613;SDS011;1821;50.936;6.854;2023-07-24T00:57:57;6.25;;;4.10;;
3613;SDS011;1821;50.936;6.854;2023-07-24T00:58:43;7.32;;;3.95;;
3613;SDS011;1821;50.936;6.854;2023-07-24T00:59:24;7.78;;;3.80;;
3613;SDS011;1821;50.936;6.854;2023-07-24T01:00:07;5.15;;;3.60;;
3613;SDS011;1821;50.936;6.854;2023-07-24T01:00:49;5.63;;;3.60;;
3613;SDS011;1821;50.936;6.854;2023-07-24T01:01:32;6.20;;;4.00;;
3613;SDS011;1821;50.936;6.854;2023-07-24T01:02:14;5.38;;;3.80;;
3613;SDS011;1821;50.936;6.854;2023-07-24T01:02:59;6.20;;;4.07;;
3613;SDS011;1821;50.936;6.854;2023-07-24T01:03:44;6.57;;;4.37;;
3613;SDS011;1821;50.936;6.854;2023-07-24T01:04:26;5.75;;;4.07;;
3613;SDS011;1821;50.936;6.854;2023-07-24T01:05:08;3.70;;;3.10;;
3613;SDS011;1821;50.936;6.854;2023-07-24T01:05:52;4.57;;;3.28;;
3613;SDS011;1821;50.936;6.854;2023-07-24T01:06:38;5.65;;;3.70;;
3613;SDS011;1821;50.936;6.854;2023-07-24T01:07:21;7.45;;;3.47;;
3613;SDS011;1821;50.936;6.854;2023-07-24T01:08:03;5.07;;;3.10;;
3613;SDS011;1821;50.936;6.854;2023-07-24T01:08:46;5.10;;;3.40;;
3613;SDS011;1821;50.936;6.854;2023-07-24T01:09:28;5.55;;;3.78;;
3613;SDS011;1821;50.936;6.854;2023-07-24T01:10:10;7.03;;;3.97;;
3613;SDS011;1821;50.936;6.854;2023-07-24T01:10:52;5.70;;;3.78;;
3613;SDS011;1821;50.936;6.854;2023-07-24T01:11:44;6.20;;;3.80;;
3613;SDS011;1821;50.936;6.854;2023-07-24T01:13:24;6.15;;;4.00;;
3613;SDS011;1821;50.936;6.854;2023-07-24T01:14:27;5.80;;;3.50;;
3613;SDS011;1821;50.936;6.854;2023-07-24T01:16:17;5.57;;;3.88;;
3613;SDS011;1821;50.936;6.854;2023-07-24T01:17:00;5.40;;;3.70;;
3613;SDS011;1821;50.936;6.854;2023-07-24T01:17:47;5.78;;;3.65;;
3613;SDS011;1821;50.936;6.854;2023-07-24T01:18:34;5.15;;;3.85;;
3613;SDS011;1821;50.936;6.854;2023-07-24T01:19:28;5.40;;;3.60;;
3613;SDS011;1821;50.936;6.854;2023-07-24T01:20:15;7.97;;;3.77;;
3613;SDS011;1821;50.936;6.854;2023-07-24T01:20:59;6.93;;;3.90;;
3613;SDS011;1821;50.936;6.854;2023-07-24T01:21:58;5.43;;;3.63;;
3613;SDS011;1821;50.936;6.854;2023-07-24T01:25:33;5.07;;;3.00;;
3613;SDS011;1821;50.936;6.854;2023-07-24T01:26:17;4.72;;;3.50;;
3613;SDS011;1821;50.936;6.854;2023-07-24T01:27:00;7.22;;;3.80;;
3613;SDS011;1821;50.936;6.854;2023-07-24T01:27:43;6.10;;;3.92;;
3613;SDS011;1821;50.936;6.854;2023-07-24T01:28:26;5.38;;;3.63;;
3613;SDS011;1821;50.936;6.854;2023-07-24T01:29:10;5.38;;;3.35;;
3613;SDS011;1821;50.936;6.854;2023-07-24T01:29:54;5.05;;;3.25;;
3613;SDS011;1821;50.936;6.854;2023-07-24T01:30:36;5.20;;;3.65;;
3613;SDS011;1821;50.936;6.854;2023-07-24T01:31:20;6.80;;;4.30;;
3613;SDS011;1821;50.936;6.854;2023-07-24T01:32:02;6.30;;;3.80;;
3613;SDS011;1821;50.936;6.854;2023-07-24T01:32:45;5.22;;;3.70;;
3613;SDS011;1821;50.936;6.854;2023-07-24T01:33:29;5.07;;;3.55;;
3613;SDS011;1821;50.936;6.854;2023-07-24T01:34:13;5.10;;;3.80;;
3613;SDS011;1821;50.936;6.854;2023-07-24T01:34:54;5.43;;;3.88;;
3613;SDS011;1821;50.936;6.854;2023-07-24T01:35:36;5.40;;;3.80;;
3613;SDS011;1821;50.936;6.854;2023-07-24T01:36:19;5.30;;;3.60;;
3613;SDS011;1821;50.936;6.854;2023-07-24T01:37:02;4.70;;;3.80;;
3613;SDS011;1821;50.936;6.854;2023-07-24T01:37:44;5.40;;;3.80;;
3613;SDS011;1821;50.936;6.854;2023-07-24T01:38:28;6.28;;;3.95;;
3613;SDS011;1821;50.936;6.854;2023-07-24T01:39:13;5.60;;;3.90;;
3613;SDS011;1821;50.936;6.854;2023-07-24T01:39:58;4.40;;;3.42;;
3613;SDS011;1821;50.936;6.854;2023-07-24T01:40:44;4.68;;;3.60;;
3613;SDS011;1821;50.936;6.854;2023-07-24T01:41:26;5.40;;;3.72;;
3613;SDS011;1821;50.936;6.854;2023-07-24T01:42:09;5.80;;;3.67;;
3613;SDS011;1821;50.936;6.854;2023-07-24T01:42:51;4.30;;;3.35;;
3613;SDS011;1821;50.936;6.854;2023-07-24T01:43:33;5.65;;;3.80;;
3613;SDS011;1821;50.936;6.854;2023-07-24T01:44:16;7.50;;;3.70;;
3613;SDS011;1821;50.936;6.854;2023-07-24T01:44:59;5.75;;;3.80;;
3613;SDS011;1821;50.936;6.854;2023-07-24T01:45:43;5.13;;;3.40;;
3613;SDS011;1821;50.936;6.854;2023-07-24T01:46:25;4.60;;;3.60;;
3613;SDS011;1821;50.936;6.854;2023-07-24T01:47:08;4.63;;;3.60;;
3613;SDS011;1821;50.936;6.854;2023-07-24T01:47:50;5.45;;;3.90;;
3613;SDS011;1821;50.936;6.854;2023-07-24T01:48:32;5.82;;;3.80;;
3613;SDS011;1821;50.936;6.854;2023-07-24T01:49:14;5.63;;;3.70;;
3613;SDS011;1821;50.936;6.854;2023-07-24T01:49:56;5.90;;;4.10;;
3613;SDS011;1821;50.936;6.854;2023-07-24T01:50:38;4.68;;;3.72;;
3613;SDS011;1821;50.936;6.854;2023-07-24T01:51:20;5.55;;;3.88;;
3613;SDS011;1821;50.936;6.854;2023-07-24T01:52:03;5.15;;;3.80;;
3613;SDS011;1821;50.936;6.854;2023-07-24T01:52:45;7.00;;;4.13;;
3613;SDS011;1821;50.936;6.854;2023-07-24T01:53:26;5.30;;;3.40;;
3613;SDS011;1821;50.936;6.854;2023-07-24T01:54:08;6.35;;;3.70;;
3613;SDS011;1821;50.936;6.854;2023-07-24T01:54:50;5.28;;;3.85;;
3613;SDS011;1821;50.936;6.854;2023-07-24T01:55:32;4.85;;;3.90;;
3613;SDS011;1821;50.936;6.854;2023-07-24T01:56:14;6.10;;;4.53;;
3613;SDS011;1821;50.936;6.854;2023-07-24T01:56:58;6.47;;;4.10;;
3613;SDS011;1821;50.936;6.854;2023-07-24T01:57:40;5.80;;;3.88;;
3613;SDS011;1821;50.936;6.854;2023-07-24T01:58:22;5.70;;;3.90;;
3613;SDS011;1821;50.936;6.854;2023-07-24T01:59:04;4.70;;;4.10;;
3613;SDS011;1821;50.936;6.854;2023-07-24T01:59:48;5.50;;;3.75;;
3613;SDS011;1821;50.936;6.854;2023-07-24T02:00:30;7.00;;;3.60;;
3613;SDS011;1821;50.936;6.854;2023-07-24T02:01:13;7.45;;;3.80;;
3613;SDS011;1821;50.936;6.854;2023-07-24T02:01:55;6.05;;;4.00;;
3613;SDS011;1821;50.936;6.854;2023-07-24T02:02:38;7.82;;;3.53;;
3613;SDS011;1821;50.936;6.854;2023-07-24T02:03:20;5.10;;;3.63;;
3613;SDS011;1821;50.936;6.854;2023-07-24T02:04:02;4.93;;;3.42;;
3613;SDS011;1821;50.936;6.854;2023-07-24T02:04:45;6.13;;;4.10;;
3613;SDS011;1821;50.936;6.854;2023-07-24T02:05:28;7.13;;;4.20;;
3613;SDS011;1821;50.936;6.854;2023-07-24T02:06:10;7.63;;;3.93;;
3613;SDS011;1821;50.936;6.854;2023-07-24T02:06:52;6.82;;;3.60;;
3613;SDS011;1821;50.936;6.854;2023-07-24T02:07:34;6.68;;;4.10;;
3613;SDS011;1821;50.936;6.854;2023-07-24T02:08:16;5.03;;;3.80;;
3613;SDS011;1821;50.936;6.854;2023-07-24T02:08:58;6.80;;;3.72;;
3613;SDS011;1821;50.936;6.854;2023-07-24T02:09:39;6.93;;;3.80;;
3613;SDS011;1821;50.936;6.854;2023-07-24T02:10:23;6.00;;;4.00;;
3613;SDS011;1821;50.936;6.854;2023-07-24T02:11:05;5.70;;;4.10;;
3613;SDS011;1821;50.936;6.854;2023-07-24T02:11:47;4.82;;;3.50;;
3613;SDS011;1821;50.936;6.854;2023-07-24T02:12:31;5.18;;;3.70;;
3613;SDS011;1821;50.936;6.854;2023-07-24T02:13:13;6.07;;;4.10;;
3613;SDS011;1821;50.936;6.854;2023-07-24T02:13:55;7.53;;;4.32;;
3613;SDS011;1821;50.936;6.854;2023-07-24T02:14:37;7.22;;;4.13;;
3613;SDS011;1821;50.936;6.854;2023-07-24T02:15:22;6.20;;;3.80;;
3613;SDS011;1821;50.936;6.854;2023-07-24T02:16:03;4.88;;;3.50;;
3613;SDS011;1821;50.936;6.854;2023-07-24T02:16:46;5.00;;;3.97;;
3613;SDS011;1821;50.936;6.854;2023-07-24T02:17:28;6.90;;;4.10;;
3613;SDS011;1821;50.936;6.854;2023-07-24T02:18:10;4.72;;;3.92;;
3613;SDS011;1821;50.936;6.854;2023-07-24T02:18:54;6.20;;;4.30;;
3613;SDS011;1821;50.936;6.854;2023-07-24T02:19:38;7.43;;;4.70;;
3613;SDS011;1821;50.936;6.854;2023-07-24T02:20:20;5.32;;;3.78;;
3613;SDS011;1821;50.936;6.854;2023-07-24T02:21:03;7.03;;;3.90;;
3613;SDS011;1821;50.936;6.854;2023-07-24T02:21:45;6.38;;;4.10;;
3613;SDS011;1821;50.936;6.854;2023-07-24T02:22:26;5.68;;;3.58;;
3613;SDS011;1821;50.936;6.854;2023-07-24T02:23:09;5.32;;;4.32;;
3613;SDS011;1821;50.936;6.854;2023-07-24T02:23:53;6.22;;;4.10;;
3613;SDS011;1821;50.936;6.854;2023-07-24T02:24:35;8.95;;;3.90;;
3613;SDS011;1821;50.936;6.854;2023-07-24T02:25:18;8.73;;;4.55;;
3613;SDS011;1821;50.936;6.854;2023-07-24T02:26:00;7.72;;;4.60;;
3613;SDS011;1821;50.936;6.854;2023-07-24T02:26:42;5.97;;;3.78;;
3613;SDS011;1821;50.936;6.854;2023-07-24T02:27:25;7.30;;;3.60;;
3613;SDS011;1821;50.936;6.854;2023-07-24T02:28:10;6.13;;;4.10;;
3613;SDS011;1821;50.936;6.854;2023-07-24T02:28:54;6.35;;;4.43;;
3613;SDS011;1821;50.936;6.854;2023-07-24T02:29:37;6.90;;;4.10;;
3613;SDS011;1821;50.936;6.854;2023-07-24T02:30:18;10.18;;;4.30;;
3613;SDS011;1821;50.936;6.854;2023-07-24T02:31:03;10.60;;;4.45;;
3613;SDS011;1821;50.936;6.854;2023-07-24T02:31:45;6.90;;;3.95;;
3613;SDS011;1821;50.936;6.854;2023-07-24T02:32:27;9.10;;;4.10;;
3613;SDS011;1821;50.936;6.854;2023-07-24T02:33:09;9.73;;;4.15;;
3613;SDS011;1821;50.936;6.854;2023-07-24T02:33:53;8.40;;;4.30;;
3613;SDS011;1821;50.936;6.854;2023-07-24T02:34:34;6.15;;;4.43;;
3613;SDS011;1821;50.936;6.854;2023-07-24T02:35:17;9.40;;;4.50;;
3613;SDS011;1821;50.936;6.854;2023-07-24T02:36:00;7.20;;;4.00;;
3613;SDS011;1821;50.936;6.854;2023-07-24T02:36:43;7.85;;;4.88;;
3613;SDS011;1821;50.936;6.854;2023-07-24T02:37:24;7.40;;;4.60;;
3613;SDS011;1821;50.936;6.854;2023-07-24T02:38:07;8.18;;;5.00;;
3613;SDS011;1821;50.936;6.854;2023-07-24T02:38:49;7.78;;;4.97;;
3613;SDS011;1821;50.936;6.854;2023-07-24T02:39:31;7.00;;;4.07;;
3613;SDS011;1821;50.936;6.854;2023-07-24T02:40:13;8.98;;;4.60;;
3613;SDS011;1821;50.936;6.854;2023-07-24T02:40:55;6.60;;;4.50;;
3613;SDS011;1821;50.936;6.854;2023-07-24T02:41:37;6.97;;;4.68;;
3613;SDS011;1821;50.936;6.854;2023-07-24T02:42:19;7.15;;;4.85;;
3613;SDS011;1821;50.936;6.854;2023-07-24T02:43:03;6.22;;;4.30;;
3613;SDS011;1821;50.936;6.854;2023-07-24T02:43:45;7.32;;;4.80;;
3613;SDS011;1821;50.936;6.854;2023-07-24T02:44:29;6.35;;;4.20;;
3613;SDS011;1821;50.936;6.854;2023-07-24T02:45:12;7.10;;;4.45;;
3613;SDS011;1821;50.936;6.854;2023-07-24T02:45:54;8.15;;;5.40;;
3613;SDS011;1821;50.936;6.854;2023-07-24T02:46:38;7.70;;;4.90;;
3613;SDS011;1821;50.936;6.854;2023-07-24T02:47:20;7.55;;;4.57;;
3613;SDS011;1821;50.936;6.854;2023-07-24T02:48:05;7.60;;;4.63;;
3613;SDS011;1821;50.936;6.854;2023-07-24T02:48:50;6.95;;;4.53;;
3613;SDS011;1821;50.936;6.854;2023-07-24T02:49:33;7.05;;;4.97;;
3613;SDS011;1821;50.936;6.854;2023-07-24T02:50:15;8.10;;;4.50;;
3613;SDS011;1821;50.936;6.854;2023-07-24T02:50:59;8.10;;;4.72;;
3613;SDS011;1821;50.936;6.854;2023-07-24T02:51:41;6.95;;;4.63;;
3613;SDS011;1821;50.936;6.854;2023-07-24T02:52:23;7.05;;;4.50;;
3613;SDS011;1821;50.936;6.854;2023-07-24T02:53:08;6.97;;;4.30;;
3613;SDS011;1821;50.936;6.854;2023-07-24T02:53:50;8.98;;;4.68;;
3613;SDS011;1821;50.936;6.854;2023-07-24T02:54:35;7.22;;;4.70;;
3613;SDS011;1821;50.936;6.854;2023-07-24T02:55:17;7.72;;;4.50;;
3613;SDS011;1821;50.936;6.854;2023-07-24T02:56:00;6.28;;;4.20;;
3613;SDS011;1821;50.936;6.854;2023-07-24T02:56:43;9.02;;;4.60;;
3613;SDS011;1821;50.936;6.854;2023-07-24T02:57:25;9.20;;;4.32;;
3613;SDS011;1821;50.936;6.854;2023-07-24T02:58:12;8.93;;;4.57;;
3613;SDS011;1821;50.936;6.854;2023-07-24T02:58:55;6.40;;;4.72;;
3613;SDS011;1821;50.936;6.854;2023-07-24T02:59:37;6.70;;;4.35;;
3613;SDS011;1821;50.936;6.854;2023-07-24T03:00:18;8.40;;;4.43;;
3613;SDS011;1821;50.936;6.854;2023-07-24T03:01:06;7.20;;;4.03;;
3613;SDS011;1821;50.936;6.854;2023-07-24T03:01:49;7.90;;;4.75;;
3613;SDS011;1821;50.936;6.854;2023-07-24T03:02:31;6.15;;;4.45;;
3613;SDS011;1821;50.936;6.854;2023-07-24T03:03:15;7.65;;;4.20;;
3613;SDS011;1821;50.936;6.854;2023-07-24T03:03:57;8.55;;;5.05;;
3613;SDS011;1821;50.936;6.854;2023-07-24T03:04:39;7.20;;;4.70;;
3613;SDS011;1821;50.936;6.854;2023-07-24T03:05:21;6.50;;;4.57;;
3613;SDS011;1821;50.936;6.854;2023-07-24T03:06:03;6.85;;;4.25;;
3613;SDS011;1821;50.936;6.854;2023-07-24T03:06:45;5.30;;;3.90;;
3613;SDS011;1821;50.936;6.854;2023-07-24T03:07:27;6.57;;;3.80;;
3613;SDS011;1821;50.936;6.854;2023-07-24T03:08:09;6.75;;;4.07;;
3613;SDS011;1821;50.936;6.854;2023-07-24T03:08:53;5.82;;;4.10;;
3613;SDS011;1821;50.936;6.854;2023-07-24T03:09:35;5.90;;;4.03;;
3613;SDS011;1821;50.936;6.854;2023-07-24T03:10:16;6.10;;;4.00;;
3613;SDS011;1821;50.936;6.854;2023-07-24T03:11:03;5.57;;;3.80;;
3613;SDS011;1821;50.936;6.854;2023-07-24T03:11:46;6.10;;;4.00;;
3613;SDS011;1821;50.936;6.854;2023-07-24T03:12:28;8.70;;;4.38;;
3613;SDS011;1821;50.936;6.854;2023-07-24T03:13:10;7.50;;;4.00;;
3613;SDS011;1821;50.936;6.854;2023-07-24T03:13:52;5.60;;;4.30;;
3613;SDS011;1821;50.936;6.854;2023-07-24T03:14:34;7.55;;;4.80;;
3613;SDS011;1821;50.936;6.854;2023-07-24T03:15:16;7.13;;;4.60;;
3613;SDS011;1821;50.936;6.854;2023-07-24T03:15:58;7.90;;;4.40;;
3613;SDS011;1821;50.936;6.854;2023-07-24T03:16:40;7.35;;;4.40;;
3613;SDS011;1821;50.936;6.854;2023-07-24T03:17:25;5.93;;;4.20;;
3613;SDS011;1821;50.936;6.854;2023-07-24T03:18:07;6.15;;;4.28;;
3613;SDS011;1821;50.936;6.854;2023-07-24T03:18:49;5.25;;;4.25;;
3613;SDS011;1821;50.936;6.854;2023-07-24T03:19:31;6.75;;;4.13;;
3613;SDS011;1821;50.936;6.854;2023-07-24T03:20:14;5.78;;;4.20;;
3613;SDS011;1821;50.936;6.854;2023-07-24T03:20:57;6.13;;;3.95;;
3613;SDS011;1821;50.936;6.854;2023-07-24T03:21:42;7.22;;;3.90;;
3613;SDS011;1821;50.936;6.854;2023-07-24T03:22:24;6.40;;;3.95;;
3613;SDS011;1821;50.936;6.854;2023-07-24T03:23:08;5.90;;;4.20;;
3613;SDS011;1821;50.936;6.854;2023-07-24T03:23:50;6.93;;;4.43;;
3613;SDS011;1821;50.936;6.854;2023-07-24T03:24:35;6.53;;;4.10;;
3613;SDS011;1821;50.936;6.854;2023-07-24T03:25:17;5.22;;;3.90;;
3613;SDS011;1821;50.936;6.854;2023-07-24T03:25:59;5.78;;;3.90;;
3613;SDS011;1821;50.936;6.854;2023-07-24T03:26:41;5.78;;;4.07;;
3613;SDS011;1821;50.936;6.854;2023-07-24T03:27:23;6.28;;;4.25;;
3613;SDS011;1821;50.936;6.854;2023-07-24T03:28:05;5.72;;;4.22;;
3613;SDS011;1821;50.936;6.854;2023-07-24T03:28:47;6.50;;;4.10;;
3613;SDS011;1821;50.936;6.854;2023-07-24T03:29:29;6.40;;;4.07;;
3613;SDS011;1821;50.936;6.854;2023-07-24T03:30:13;6.18;;;4.13;;
3613;SDS011;1821;50.936;6.854;2023-07-24T03:30:55;6.30;;;4.45;;
3613;SDS011;1821;50.936;6.854;2023-07-24T03:31:37;6.40;;;4.60;;
3613;SDS011;1821;50.936;6.854;2023-07-24T03:32:19;5.90;;;4.28;;
3613;SDS011;1821;50.936;6.854;2023-07-24T03:33:01;4.85;;;3.95;;
3613;SDS011;1821;50.936;6.854;2023-07-24T03:33:43;6.47;;;4.13;;
3613;SDS011;1821;50.936;6.854;2023-07-24T03:34:25;5.80;;;4.30;;
3613;SDS011;1821;50.936;6.854;2023-07-24T03:35:10;6.22;;;4.22;;
3613;SDS011;1821;50.936;6.854;2023-07-24T03:35:51;5.88;;;4.40;;
3613;SDS011;1821;50.936;6.854;2023-07-24T03:36:33;6.10;;;4.15;;
3613;SDS011;1821;50.936;6.854;2023-07-24T03:37:17;6.93;;;3.78;;
3613;SDS011;1821;50.936;6.854;2023-07-24T03:37:59;6.22;;;4.10;;
3613;SDS011;1821;50.936;6.854;2023-07-24T03:38:41;6.75;;;4.38;;
3613;SDS011;1821;50.936;6.854;2023-07-24T03:39:23;5.70;;;3.95;;
3613;SDS011;1821;50.936;6.854;2023-07-24T03:40:05;4.90;;;3.55;;
3613;SDS011;1821;50.936;6.854;2023-07-24T03:40:47;7.18;;;4.13;;
3613;SDS011;1821;50.936;6.854;2023-07-24T03:41:29;8.30;;;4.38;;
3613;SDS011;1821;50.936;6.854;2023-07-24T03:42:11;6.25;;;3.50;;
3613;SDS011;1821;50.936;6.854;2023-07-24T03:42:54;5.80;;;3.60;;
3613;SDS011;1821;50.936;6.854;2023-07-24T03:43:36;6.10;;;4.00;;
3613;SDS011;1821;50.936;6.854;2023-07-24T03:44:18;6.35;;;4.10;;
3613;SDS011;1821;50.936;6.854;2023-07-24T03:45:00;6.20;;;3.95;;
3613;SDS011;1821;50.936;6.854;2023-07-24T03:45:42;6.38;;;4.80;;
3613;SDS011;1821;50.936;6.854;2023-07-24T03:46:25;5.85;;;4.32;;
3613;SDS011;1821;50.936;6.854;2023-07-24T03:47:08;6.65;;;4.47;;
3613;SDS011;1821;50.936;6.854;2023-07-24T03:47:49;7.70;;;4.60;;
3613;SDS011;1821;50.936;6.854;2023-07-24T03:48:31;6.93;;;4.47;;
3613;SDS011;1821;50.936;6.854;2023-07-24T03:49:13;6.43;;;4.43;;
3613;SDS011;1821;50.936;6.854;2023-07-24T03:49:56;5.28;;;4.10;;
3613;SDS011;1821;50.936;6.854;2023-07-24T03:50:40;6.57;;;3.97;;
3613;SDS011;1821;50.936;6.854;2023-07-24T03:51:22;9.50;;;4.55;;
3613;SDS011;1821;50.936;6.854;2023-07-24T03:52:04;6.95;;;4.10;;
3613;SDS011;1821;50.936;6.854;2023-07-24T03:52:46;5.60;;;4.13;;
3613;SDS011;1821;50.936;6.854;2023-07-24T03:53:28;6.68;;;4.00;;
3613;SDS011;1821;50.936;6.854;2023-07-24T03:54:13;7.35;;;4.20;;
3613;SDS011;1821;50.936;6.854;2023-07-24T03:54:55;8.13;;;4.32;;
3613;SDS011;1821;50.936;6.854;2023-07-24T03:55:37;6.80;;;3.70;;
3613;SDS011;1821;50.936;6.854;2023-07-24T03:56:19;6.30;;;4.20;;
3613;SDS011;1821;50.936;6.854;2023-07-24T03:57:03;7.70;;;4.32;;
3613;SDS011;1821;50.936;6.854;2023-07-24T03:57:46;7.10;;;4.18;;
3613;SDS011;1821;50.936;6.854;2023-07-24T03:58:28;8.38;;;4.53;;
3613;SDS011;1821;50.936;6.854;2023-07-24T03:59:10;7.68;;;4.57;;
3613;SDS011;1821;50.936;6.854;2023-07-24T03:59:53;7.07;;;4.30;;
3613;SDS011;1821;50.936;6.854;2023-07-24T04:00:34;7.57;;;4.40;;
3613;SDS011;1821;50.936;6.854;2023-07-24T04:01:16;7.35;;;4.28;;
3613;SDS011;1821;50.936;6.854;2023-07-24T04:01:58;7.03;;;4.00;;
3613;SDS011;1821;50.936;6.854;2023-07-24T04:02:41;5.65;;;4.45;;
3613;SDS011;1821;50.936;6.854;2023-07-24T04:03:25;7.05;;;4.30;;
3613;SDS011;1821;50.936;6.854;2023-07-24T04:04:07;5.50;;;4.20;;
3613;SDS011;1821;50.936;6.854;2023-07-24T04:04:49;5.03;;;3.90;;
3613;SDS011;1821;50.936;6.854;2023-07-24T04:05:31;6.80;;;3.90;;
3613;SDS011;1821;50.936;6.854;2023-07-24T04:06:18;8.63;;;4.03;;
3613;SDS011;1821;50.936;6.854;2023-07-24T04:07:00;6.50;;;3.90;;
3613;SDS011;1821;50.936;6.854;2023-07-24T04:07:45;7.20;;;4.03;;
3613;SDS011;1821;50.936;6.854;2023-07-24T04:08:26;5.55;;;3.97;;
3613;SDS011;1821;50.936;6.854;2023-07-24T04:09:08;8.00;;;4.05;;
3613;SDS011;1821;50.936;6.854;2023-07-24T04:09:52;9.88;;;4.15;;
3613;SDS011;1821;50.936;6.854;2023-07-24T04:10:36;7.05;;;4.22;;
3613;SDS011;1821;50.936;6.854;2023-07-24T04:11:18;6.25;;;4.15;;
3613;SDS011;1821;50.936;6.854;2023-07-24T04:12:00;5.57;;;3.95;;
3613;SDS011;1821;50.936;6.854;2023-07-24T04:12:42;6.90;;;3.80;;
3613;SDS011;1821;50.936;6.854;2023-07-24T04:13:24;5.50;;;3.20;;
3613;SDS011;1821;50.936;6.854;2023-07-24T04:14:06;4.10;;;3.28;;
3613;SDS011;1821;50.936;6.854;2023-07-24T04:14:48;6.05;;;4.00;;
3613;SDS011;1821;50.936;6.854;2023-07-24T04:15:31;5.60;;;4.00;;
3613;SDS011;1821;50.936;6.854;2023-07-24T04:16:13;6.03;;;4.25;;
3613;SDS011;1821;50.936;6.854;2023-07-24T04:16:55;5.47;;;3.90;;
3613;SDS011;1821;50.936;6.854;2023-07-24T04:17:37;5.30;;;3.85;;
3613;SDS011;1821;50.936;6.854;2023-07-24T04:18:23;5.57;;;4.20;;
3613;SDS011;1821;50.936;6.854;2023-07-24T04:19:05;5.32;;;4.20;;
3613;SDS011;1821;50.936;6.854;2023-07-24T04:19:47;8.00;;;4.20;;
3613;SDS011;1821;50.936;6.854;2023-07-24T04:20:29;5.60;;;3.72;;
3613;SDS011;1821;50.936;6.854;2023-07-24T04:21:11;6.00;;;4.50;;
3613;SDS011;1821;50.936;6.854;2023-07-24T04:21:53;6.07;;;4.30;;
3613;SDS011;1821;50.936;6.854;2023-07-24T04:22:35;5.60;;;4.10;;
3613;SDS011;1821;50.936;6.854;2023-07-24T04:23:17;5.50;;;4.28;;
3613;SDS011;1821;50.936;6.854;2023-07-24T04:23:59;6.97;;;4.65;;
3613;SDS011;1821;50.936;6.854;2023-07-24T04:24:43;6.75;;;4.30;;
3613;SDS011;1821;50.936;6.854;2023-07-24T04:25:25;6.05;;;4.53;;
3613;SDS011;1821;50.936;6.854;2023-07-24T04:26:07;5.50;;;4.20;;
3613;SDS011;1821;50.936;6.854;2023-07-24T04:26:49;6.45;;;4.22;;
3613;SDS011;1821;50.936;6.854;2023-07-24T04:27:33;9.27;;;4.75;;
3613;SDS011;1821;50.936;6.854;2023-07-24T04:28:15;6.97;;;4.20;;
3613;SDS011;1821;50.936;6.854;2023-07-24T04:28:57;6.20;;;4.53;;
3613;SDS011;1821;50.936;6.854;2023-07-24T04:29:39;6.82;;;4.82;;
3613;SDS011;1821;50.936;6.854;2023-07-24T04:30:21;6.90;;;4.35;;
3613;SDS011;1821;50.936;6.854;2023-07-24T04:31:03;7.35;;;4.65;;